sensor_id;sensor_type;location;lat;lon;timestamp;pressure;altitude;pressure_sealevel;temperature;humidity
74372;BME280;62885;51.374;6.170;2023-07-08T00:00:52;101276.09;;;21.97;49.96
74372;BME280;62885;51.374;6.170;2023-07-08T00:03:19;101265.19;;;21.97;50.23
74372;BME280;62885;51.374;6.170;2023-07-08T00:05:46;101263.16;;;21.99;50.13
74372;BME280;62885;51.374;6.170;2023-07-08T00:08:20;101256.66;;;22.00;50.25
74372;BME280;62885;51.374;6.170;2023-07-08T00:10:46;101252.44;;;21.89;50.72
74372;BME280;62885;51.374;6.170;2023-07-08T00:13:12;101251.91;;;21.86;50.98
74372;BME280;62885;51.374;6.170;2023-07-08T00:15:40;101248.22;;;21.70;51.49
74372;BME280;62885;51.374;6.170;2023-07-08T00:18:11;101243.94;;;21.76;51.13
74372;BME280;62885;51.374;6.170;2023-07-08T00:23:04;101259.47;;;21.67;51.65
74372;BME280;62885;51.374;6.170;2023-07-08T00:25:30;101248.75;;;21.66;51.40
74372;BME280;62885;51.374;6.170;2023-07-08T00:27:56;101243.00;;;21.53;51.53
74372;BME280;62885;51.374;6.170;2023-07-08T00:30:23;101239.97;;;21.48;52.20
74372;BME280;62885;51.374;6.170;2023-07-08T00:32:50;101243.53;;;21.48;52.15
74372;BME280;62885;51.374;6.170;2023-07-08T00:35:31;101234.69;;;21.38;52.58
74372;BME280;62885;51.374;6.170;2023-07-08T00:37:57;101231.47;;;21.35;52.65
74372;BME280;62885;51.374;6.170;2023-07-08T00:40:38;101217.34;;;21.31;52.64
74372;BME280;62885;51.374;6.170;2023-07-08T00:43:14;101223.66;;;21.32;52.97
74372;BME280;62885;51.374;6.170;2023-07-08T00:45:51;101227.72;;;21.27;53.10
74372;BME280;62885;51.374;6.170;2023-07-08T00:48:28;101226.56;;;21.22;53.23
74372;BME280;62885;51.374;6.170;2023-07-08T00:50:55;101237.13;;;21.17;53.48
74372;BME280;62885;51.374;6.170;2023-07-08T00:55:55;101231.47;;;21.10;53.85
74372;BME280;62885;51.374;6.170;2023-07-08T00:58:23;101227.06;;;21.01;54.08
74372;BME280;62885;51.374;6.170;2023-07-08T01:00:51;101213.09;;;21.04;54.22
74372;BME280;62885;51.374;6.170;2023-07-08T01:03:19;101221.78;;;21.00;54.15
74372;BME280;62885;51.374;6.170;2023-07-08T01:05:45;101226.38;;;21.07;54.18
74372;BME280;62885;51.374;6.170;2023-07-08T01:08:11;101219.91;;;21.08;53.79
74372;BME280;62885;51.374;6.170;2023-07-08T01:10:43;101219.59;;;21.19;53.64
74372;BME280;62885;51.374;6.170;2023-07-08T01:13:12;101218.53;;;21.12;53.85
74372;BME280;62885;51.374;6.170;2023-07-08T01:15:41;101218.03;;;21.09;53.74
74372;BME280;62885;51.374;6.170;2023-07-08T01:18:09;101214.97;;;21.12;53.86
74372;BME280;62885;51.374;6.170;2023-07-08T01:20:35;101219.41;;;21.21;53.49
74372;BME280;62885;51.374;6.170;2023-07-08T01:23:00;101214.63;;;21.15;53.49
74372;BME280;62885;51.374;6.170;2023-07-08T01:25:26;101209.34;;;21.13;53.62
74372;BME280;62885;51.374;6.170;2023-07-08T01:27:54;101207.31;;;21.15;53.91
74372;BME280;62885;51.374;6.170;2023-07-08T01:30:21;101207.31;;;21.23;53.63
74372;BME280;62885;51.374;6.170;2023-07-08T01:32:52;101209.56;;;21.20;53.69
74372;BME280;62885;51.374;6.170;2023-07-08T01:35:20;101197.81;;;21.19;53.53
74372;BME280;62885;51.374;6.170;2023-07-08T01:37:52;101201.72;;;21.17;53.80
74372;BME280;62885;51.374;6.170;2023-07-08T01:42:44;101199.31;;;21.22;53.74
74372;BME280;62885;51.374;6.170;2023-07-08T01:45:12;101198.47;;;21.21;53.58
74372;BME280;62885;51.374;6.170;2023-07-08T01:47:38;101197.81;;;21.19;53.49
74372;BME280;62885;51.374;6.170;2023-07-08T01:50:04;101199.47;;;21.20;53.79
74372;BME280;62885;51.374;6.170;2023-07-08T01:52:30;101197.97;;;21.18;53.83
74372;BME280;62885;51.374;6.170;2023-07-08T01:54:56;101186.91;;;21.19;53.69
74372;BME280;62885;51.374;6.170;2023-07-08T01:57:21;101185.69;;;21.22;53.76
74372;BME280;62885;51.374;6.170;2023-07-08T01:59:46;101189.44;;;21.21;53.76
74372;BME280;62885;51.374;6.170;2023-07-08T02:02:12;101178.91;;;21.18;53.79
74372;BME280;62885;51.374;6.170;2023-07-08T02:04:38;101179.06;;;21.16;53.80
74372;BME280;62885;51.374;6.170;2023-07-08T02:07:03;101180.09;;;21.15;53.96
74372;BME280;62885;51.374;6.170;2023-07-08T02:09:29;101180.41;;;21.12;54.38
74372;BME280;62885;51.374;6.170;2023-07-08T02:11:55;101177.00;;;21.10;54.63
74372;BME280;62885;51.374;6.170;2023-07-08T02:14:21;101170.91;;;21.00;54.88
74372;BME280;62885;51.374;6.170;2023-07-08T02:16:47;101168.34;;;20.99;54.79
74372;BME280;62885;51.374;6.170;2023-07-08T02:19:13;101172.78;;;21.00;54.86
74372;BME280;62885;51.374;6.170;2023-07-08T02:21:38;101173.78;;;20.99;54.92
74372;BME280;62885;51.374;6.170;2023-07-08T02:24:04;101175.34;;;20.93;55.04
74372;BME280;62885;51.374;6.170;2023-07-08T02:26:30;101175.69;;;20.90;55.25
74372;BME280;62885;51.374;6.170;2023-07-08T02:28:59;101177.91;;;20.86;55.68
74372;BME280;62885;51.374;6.170;2023-07-08T02:31:25;101169.91;;;20.85;55.74
74372;BME280;62885;51.374;6.170;2023-07-08T02:33:51;101168.91;;;20.78;55.61
74372;BME280;62885;51.374;6.170;2023-07-08T02:36:17;101164.78;;;20.74;55.78
74372;BME280;62885;51.374;6.170;2023-07-08T02:38:42;101161.59;;;20.70;56.11
74372;BME280;62885;51.374;6.170;2023-07-08T02:41:07;101152.94;;;20.67;56.16
74372;BME280;62885;51.374;6.170;2023-07-08T02:43:33;101160.41;;;20.65;56.29
74372;BME280;62885;51.374;6.170;2023-07-08T02:45:58;101161.56;;;20.62;56.31
74372;BME280;62885;51.374;6.170;2023-07-08T02:48:24;101154.78;;;20.58;56.43
74372;BME280;62885;51.374;6.170;2023-07-08T02:50:49;101153.06;;;20.57;56.71
74372;BME280;62885;51.374;6.170;2023-07-08T02:53:14;101152.06;;;20.50;56.86
74372;BME280;62885;51.374;6.170;2023-07-08T02:55:40;101151.41;;;20.48;57.03
74372;BME280;62885;51.374;6.170;2023-07-08T02:58:10;101158.53;;;20.49;56.82
74372;BME280;62885;51.374;6.170;2023-07-08T03:00:35;101154.28;;;20.46;57.14
74372;BME280;62885;51.374;6.170;2023-07-08T03:03:03;101156.84;;;20.48;57.11
74372;BME280;62885;51.374;6.170;2023-07-08T03:05:28;101150.69;;;20.46;56.82
74372;BME280;62885;51.374;6.170;2023-07-08T03:07:54;101151.19;;;20.33;57.59
74372;BME280;62885;51.374;6.170;2023-07-08T03:10:19;101155.09;;;20.31;57.70
74372;BME280;62885;51.374;6.170;2023-07-08T03:12:44;101152.88;;;20.26;57.98
74372;BME280;62885;51.374;6.170;2023-07-08T03:15:10;101155.06;;;20.23;57.91
74372;BME280;62885;51.374;6.170;2023-07-08T03:17:35;101165.44;;;20.27;57.90
74372;BME280;62885;51.374;6.170;2023-07-08T03:20:00;101157.63;;;20.24;57.96
74372;BME280;62885;51.374;6.170;2023-07-08T03:22:26;101153.19;;;20.15;58.16
74372;BME280;62885;51.374;6.170;2023-07-08T03:24:51;101154.41;;;20.21;58.30
74372;BME280;62885;51.374;6.170;2023-07-08T03:27:17;101164.75;;;20.17;58.12
74372;BME280;62885;51.374;6.170;2023-07-08T03:29:42;101156.09;;;20.14;58.12
74372;BME280;62885;51.374;6.170;2023-07-08T03:32:10;101154.03;;;20.16;58.36
74372;BME280;62885;51.374;6.170;2023-07-08T03:34:36;101155.75;;;20.17;58.38
74372;BME280;62885;51.374;6.170;2023-07-08T03:37:02;101153.72;;;20.19;58.35
74372;BME280;62885;51.374;6.170;2023-07-08T03:39:27;101146.03;;;20.06;58.71
74372;BME280;62885;51.374;6.170;2023-07-08T03:41:53;101157.97;;;20.13;58.38
74372;BME280;62885;51.374;6.170;2023-07-08T03:44:18;101164.41;;;20.12;58.96
74372;BME280;62885;51.374;6.170;2023-07-08T03:46:45;101162.69;;;20.11;58.82
74372;BME280;62885;51.374;6.170;2023-07-08T03:49:11;101159.13;;;20.10;58.93
74372;BME280;62885;51.374;6.170;2023-07-08T03:51:39;101159.97;;;20.03;59.15
74372;BME280;62885;51.374;6.170;2023-07-08T03:54:07;101158.59;;;19.99;59.50
74372;BME280;62885;51.374;6.170;2023-07-08T03:56:34;101174.06;;;19.90;59.95
74372;BME280;62885;51.374;6.170;2023-07-08T03:58:59;101171.66;;;19.87;60.47
74372;BME280;62885;51.374;6.170;2023-07-08T04:01:25;101171.28;;;19.82;60.75
74372;BME280;62885;51.374;6.170;2023-07-08T04:03:52;101171.09;;;19.76;61.27
74372;BME280;62885;51.374;6.170;2023-07-08T04:06:18;101175.53;;;19.77;61.28
74372;BME280;62885;51.374;6.170;2023-07-08T04:08:44;101172.81;;;19.77;61.18
74372;BME280;62885;51.374;6.170;2023-07-08T04:11:15;101178.59;;;19.74;61.30
74372;BME280;62885;51.374;6.170;2023-07-08T04:13:41;101174.81;;;19.75;60.99
74372;BME280;62885;51.374;6.170;2023-07-08T04:16:09;101171.28;;;19.74;61.29
74372;BME280;62885;51.374;6.170;2023-07-08T04:18:39;101169.38;;;19.75;61.54
74372;BME280;62885;51.374;6.170;2023-07-08T04:21:05;101178.25;;;19.77;61.52
74372;BME280;62885;51.374;6.170;2023-07-08T04:23:31;101173.16;;;19.82;61.34
74372;BME280;62885;51.374;6.170;2023-07-08T04:25:57;101165.84;;;19.74;61.81
74372;BME280;62885;51.374;6.170;2023-07-08T04:28:23;101165.50;;;19.77;61.89
74372;BME280;62885;51.374;6.170;2023-07-08T04:30:48;101172.31;;;19.81;61.48
74372;BME280;62885;51.374;6.170;2023-07-08T04:33:14;101181.16;;;19.83;61.60
74372;BME280;62885;51.374;6.170;2023-07-08T04:35:41;101177.53;;;19.75;61.99
74372;BME280;62885;51.374;6.170;2023-07-08T04:38:19;101187.59;;;19.74;62.13
74372;BME280;62885;51.374;6.170;2023-07-08T04:40:46;101187.63;;;19.98;61.34
74372;BME280;62885;51.374;6.170;2023-07-08T04:43:12;101190.72;;;20.03;61.25
74372;BME280;62885;51.374;6.170;2023-07-08T04:45:38;101187.78;;;19.89;61.81
74372;BME280;62885;51.374;6.170;2023-07-08T04:48:05;101181.47;;;19.80;62.53
74372;BME280;62885;51.374;6.170;2023-07-08T04:50:41;101177.03;;;19.71;63.01
74372;BME280;62885;51.374;6.170;2023-07-08T04:53:08;101180.81;;;19.78;62.88
74372;BME280;62885;51.374;6.170;2023-07-08T04:55:40;101178.44;;;19.83;62.12
74372;BME280;62885;51.374;6.170;2023-07-08T04:58:06;101184.06;;;19.90;61.84
74372;BME280;62885;51.374;6.170;2023-07-08T05:00:32;101190.09;;;20.26;60.64
74372;BME280;62885;51.374;6.170;2023-07-08T05:02:57;101185.22;;;20.78;59.18
74372;BME280;62885;51.374;6.170;2023-07-08T05:05:23;101183.50;;;21.17;57.38
74372;BME280;62885;51.374;6.170;2023-07-08T05:07:48;101181.94;;;21.31;57.18
74372;BME280;62885;51.374;6.170;2023-07-08T05:10:15;101184.78;;;21.46;56.54
74372;BME280;62885;51.374;6.170;2023-07-08T05:12:42;101182.81;;;21.23;56.75
74372;BME280;62885;51.374;6.170;2023-07-08T05:15:08;101175.88;;;21.60;55.91
74372;BME280;62885;51.374;6.170;2023-07-08T05:17:34;101181.03;;;21.86;55.18
74372;BME280;62885;51.374;6.170;2023-07-08T05:20:00;101181.19;;;21.84;54.86
74372;BME280;62885;51.374;6.170;2023-07-08T05:22:26;101180.00;;;21.87;55.11
74372;BME280;62885;51.374;6.170;2023-07-08T05:24:53;101184.59;;;21.86;55.04
74372;BME280;62885;51.374;6.170;2023-07-08T05:27:24;101188.25;;;21.70;55.60
74372;BME280;62885;51.374;6.170;2023-07-08T05:29:50;101182.19;;;21.60;55.96
74372;BME280;62885;51.374;6.170;2023-07-08T05:32:16;101183.34;;;21.66;56.07
74372;BME280;62885;51.374;6.170;2023-07-08T05:34:43;101187.84;;;22.43;53.80
74372;BME280;62885;51.374;6.170;2023-07-08T05:37:09;101184.91;;;22.76;52.39
74372;BME280;62885;51.374;6.170;2023-07-08T05:39:34;101189.94;;;22.41;53.75
74372;BME280;62885;51.374;6.170;2023-07-08T05:42:00;101191.34;;;22.98;52.61
74372;BME280;62885;51.374;6.170;2023-07-08T05:44:25;101193.75;;;22.78;52.26
74372;BME280;62885;51.374;6.170;2023-07-08T05:46:50;101196.66;;;23.14;50.97
74372;BME280;62885;51.374;6.170;2023-07-08T05:49:16;101194.44;;;23.61;50.04
74372;BME280;62885;51.374;6.170;2023-07-08T05:51:43;101184.06;;;23.71;49.41
74372;BME280;62885;51.374;6.170;2023-07-08T05:54:09;101194.00;;;24.08;48.57
74372;BME280;62885;51.374;6.170;2023-07-08T05:56:34;101186.16;;;24.41;46.75
74372;BME280;62885;51.374;6.170;2023-07-08T05:59:00;101194.50;;;24.54;46.91
74372;BME280;62885;51.374;6.170;2023-07-08T06:01:25;101194.44;;;24.12;47.17
74372;BME280;62885;51.374;6.170;2023-07-08T06:03:51;101200.19;;;24.17;47.11
74372;BME280;62885;51.374;6.170;2023-07-08T06:06:17;101206.53;;;24.81;45.87
74372;BME280;62885;51.374;6.170;2023-07-08T06:08:43;101204.88;;;25.02;44.75
74372;BME280;62885;51.374;6.170;2023-07-08T06:11:08;101203.25;;;24.86;44.78
74372;BME280;62885;51.374;6.170;2023-07-08T06:13:35;101206.06;;;24.92;45.32
74372;BME280;62885;51.374;6.170;2023-07-08T06:16:01;101210.00;;;25.39;44.06
74372;BME280;62885;51.374;6.170;2023-07-08T06:18:26;101219.72;;;25.76;43.02
74372;BME280;62885;51.374;6.170;2023-07-08T06:20:57;101213.06;;;26.85;40.54
74372;BME280;62885;51.374;6.170;2023-07-08T06:23:23;101202.72;;;26.54;40.38
74372;BME280;62885;51.374;6.170;2023-07-08T06:25:48;101210.81;;;27.99;37.42
74372;BME280;62885;51.374;6.170;2023-07-08T06:28:14;101209.28;;;26.67;39.96
74372;BME280;62885;51.374;6.170;2023-07-08T06:30:40;101211.88;;;26.14;41.78
74372;BME280;62885;51.374;6.170;2023-07-08T06:33:05;101203.59;;;25.60;42.17
74372;BME280;62885;51.374;6.170;2023-07-08T06:35:30;101196.84;;;26.03;41.58
74372;BME280;62885;51.374;6.170;2023-07-08T06:37:56;101198.28;;;25.24;42.89
74372;BME280;62885;51.374;6.170;2023-07-08T06:40:22;101193.44;;;24.77;44.05
74372;BME280;62885;51.374;6.170;2023-07-08T06:42:47;101192.59;;;24.76;44.46
74372;BME280;62885;51.374;6.170;2023-07-08T06:45:12;101194.28;;;24.99;43.79
74372;BME280;62885;51.374;6.170;2023-07-08T06:47:38;101190.88;;;24.69;44.41
74372;BME280;62885;51.374;6.170;2023-07-08T06:50:04;101191.84;;;25.10;43.91
74372;BME280;62885;51.374;6.170;2023-07-08T06:52:30;101190.72;;;24.98;44.57
74372;BME280;62885;51.374;6.170;2023-07-08T06:55:00;101188.25;;;24.39;46.29
74372;BME280;62885;51.374;6.170;2023-07-08T06:57:26;101193.69;;;24.18;46.81
74372;BME280;62885;51.374;6.170;2023-07-08T06:59:51;101186.25;;;24.69;45.44
74372;BME280;62885;51.374;6.170;2023-07-08T07:02:17;101193.06;;;25.01;44.72
74372;BME280;62885;51.374;6.170;2023-07-08T07:04:43;101196.03;;;25.62;43.87
74372;BME280;62885;51.374;6.170;2023-07-08T07:07:09;101199.06;;;25.80;43.30
74372;BME280;62885;51.374;6.170;2023-07-08T07:09:34;101198.13;;;26.07;42.26
74372;BME280;62885;51.374;6.170;2023-07-08T07:12:00;101197.88;;;27.09;39.70
74372;BME280;62885;51.374;6.170;2023-07-08T07:14:26;101196.28;;;27.79;38.13
74372;BME280;62885;51.374;6.170;2023-07-08T07:16:51;101200.69;;;28.69;35.97
74372;BME280;62885;51.374;6.170;2023-07-08T07:19:17;101198.94;;;27.15;38.91
74372;BME280;62885;51.374;6.170;2023-07-08T07:21:42;101193.19;;;25.90;41.42
74372;BME280;62885;51.374;6.170;2023-07-08T07:24:07;101202.28;;;25.90;42.18
74372;BME280;62885;51.374;6.170;2023-07-08T07:26:33;101199.00;;;26.21;41.75
74372;BME280;62885;51.374;6.170;2023-07-08T07:28:58;101198.34;;;26.12;41.17
74372;BME280;62885;51.374;6.170;2023-07-08T07:31:24;101203.66;;;26.14;40.74
74372;BME280;62885;51.374;6.170;2023-07-08T07:33:49;101208.09;;;26.15;41.30
74372;BME280;62885;51.374;6.170;2023-07-08T07:36:15;101210.47;;;26.25;41.13
74372;BME280;62885;51.374;6.170;2023-07-08T07:38:40;101211.59;;;26.50;40.37
74372;BME280;62885;51.374;6.170;2023-07-08T07:41:05;101202.31;;;26.71;39.41
74372;BME280;62885;51.374;6.170;2023-07-08T07:43:33;101209.69;;;26.64;39.32
74372;BME280;62885;51.374;6.170;2023-07-08T07:45:59;101215.16;;;26.44;39.58
74372;BME280;62885;51.374;6.170;2023-07-08T07:48:24;101208.16;;;26.35;39.68
74372;BME280;62885;51.374;6.170;2023-07-08T07:50:50;101205.00;;;26.31;39.98
74372;BME280;62885;51.374;6.170;2023-07-08T07:53:16;101205.53;;;26.13;40.02
74372;BME280;62885;51.374;6.170;2023-07-08T07:55:42;101202.44;;;25.82;40.97
74372;BME280;62885;51.374;6.170;2023-07-08T07:58:07;101210.03;;;25.73;41.43
74372;BME280;62885;51.374;6.170;2023-07-08T08:00:33;101201.34;;;25.70;41.17
74372;BME280;62885;51.374;6.170;2023-07-08T08:02:58;101196.19;;;25.95;41.44
74372;BME280;62885;51.374;6.170;2023-07-08T08:05:24;101191.50;;;25.89;41.37
74372;BME280;62885;51.374;6.170;2023-07-08T08:07:49;101201.41;;;25.83;41.22
74372;BME280;62885;51.374;6.170;2023-07-08T08:10:15;101202.25;;;25.84;41.23
74372;BME280;62885;51.374;6.170;2023-07-08T08:12:40;101203.13;;;25.91;41.69
74372;BME280;62885;51.374;6.170;2023-07-08T08:15:07;101200.22;;;26.05;41.42
74372;BME280;62885;51.374;6.170;2023-07-08T08:17:32;101197.06;;;26.02;41.21
74372;BME280;62885;51.374;6.170;2023-07-08T08:19:58;101201.25;;;25.98;41.59
74372;BME280;62885;51.374;6.170;2023-07-08T08:22:23;101202.88;;;26.27;41.25
74372;BME280;62885;51.374;6.170;2023-07-08T08:24:49;101196.09;;;26.29;41.29
74372;BME280;62885;51.374;6.170;2023-07-08T08:27:14;101207.59;;;26.79;41.61
74372;BME280;62885;51.374;6.170;2023-07-08T08:29:40;101216.31;;;27.02;39.93
74372;BME280;62885;51.374;6.170;2023-07-08T08:32:05;101220.97;;;27.02;39.74
74372;BME280;62885;51.374;6.170;2023-07-08T08:34:31;101214.19;;;27.04;39.75
74372;BME280;62885;51.374;6.170;2023-07-08T08:36:57;101205.94;;;27.04;40.16
74372;BME280;62885;51.374;6.170;2023-07-08T08:39:22;101207.84;;;26.90;39.49
74372;BME280;62885;51.374;6.170;2023-07-08T08:41:50;101212.47;;;27.16;39.68
74372;BME280;62885;51.374;6.170;2023-07-08T08:44:27;101219.22;;;27.33;39.81
74372;BME280;62885;51.374;6.170;2023-07-08T08:49:56;101227.69;;;27.32;39.61
74372;BME280;62885;51.374;6.170;2023-07-08T08:52:22;101224.91;;;27.45;39.68
74372;BME280;62885;51.374;6.170;2023-07-08T08:54:47;101225.50;;;27.80;39.38
74372;BME280;62885;51.374;6.170;2023-07-08T08:59:53;101232.72;;;27.74;39.50
74372;BME280;62885;51.374;6.170;2023-07-08T09:02:32;101239.59;;;28.03;39.22
74372;BME280;62885;51.374;6.170;2023-07-08T09:05:08;101232.84;;;27.99;38.86
74372;BME280;62885;51.374;6.170;2023-07-08T09:12:57;101229.03;;;28.00;38.76
74372;BME280;62885;51.374;6.170;2023-07-08T09:15:25;101221.50;;;28.27;38.60
74372;BME280;62885;51.374;6.170;2023-07-08T09:17:52;101226.19;;;28.20;38.57
74372;BME280;62885;51.374;6.170;2023-07-08T09:20:28;101226.06;;;28.46;38.19
74372;BME280;62885;51.374;6.170;2023-07-08T09:22:59;101228.00;;;28.39;37.59
74372;BME280;62885;51.374;6.170;2023-07-08T09:28:01;101223.28;;;28.53;37.15
74372;BME280;62885;51.374;6.170;2023-07-08T09:30:27;101223.56;;;28.76;36.72
74372;BME280;62885;51.374;6.170;2023-07-08T09:32:56;101224.63;;;28.37;36.62
74372;BME280;62885;51.374;6.170;2023-07-08T09:35:28;101235.47;;;28.70;36.63
74372;BME280;62885;51.374;6.170;2023-07-08T09:37:54;101223.19;;;28.97;35.71
74372;BME280;62885;51.374;6.170;2023-07-08T09:40:28;101224.56;;;29.07;35.14
74372;BME280;62885;51.374;6.170;2023-07-08T09:43:00;101224.41;;;29.02;35.61
74372;BME280;62885;51.374;6.170;2023-07-08T09:45:28;101211.88;;;28.81;36.26
74372;BME280;62885;51.374;6.170;2023-07-08T09:47:56;101211.59;;;29.14;34.88
74372;BME280;62885;51.374;6.170;2023-07-08T09:50:25;101209.47;;;29.41;35.18
74372;BME280;62885;51.374;6.170;2023-07-08T09:52:54;101202.72;;;29.12;35.07
74372;BME280;62885;51.374;6.170;2023-07-08T09:55:20;101206.84;;;29.21;35.10
74372;BME280;62885;51.374;6.170;2023-07-08T09:57:47;101208.00;;;29.31;35.05
74372;BME280;62885;51.374;6.170;2023-07-08T10:00:16;101212.88;;;29.36;34.31
74372;BME280;62885;51.374;6.170;2023-07-08T10:02:46;101218.91;;;29.51;34.71
74372;BME280;62885;51.374;6.170;2023-07-08T10:07:53;101222.09;;;29.66;34.56
74372;BME280;62885;51.374;6.170;2023-07-08T10:10:27;101218.13;;;29.62;34.63
74372;BME280;62885;51.374;6.170;2023-07-08T10:15:46;101217.34;;;30.28;33.78
74372;BME280;62885;51.374;6.170;2023-07-08T10:18:25;101215.06;;;30.55;33.37
74372;BME280;62885;51.374;6.170;2023-07-08T10:20:55;101219.72;;;30.25;33.23
74372;BME280;62885;51.374;6.170;2023-07-08T10:26:14;101222.69;;;30.23;32.96
74372;BME280;62885;51.374;6.170;2023-07-08T10:36:52;101209.06;;;30.28;32.36
74372;BME280;62885;51.374;6.170;2023-07-08T10:47:46;101208.25;;;30.69;30.97
74372;BME280;62885;51.374;6.170;2023-07-08T10:50:52;101202.38;;;30.77;30.38
74372;BME280;62885;51.374;6.170;2023-07-08T10:55:58;101207.63;;;31.09;30.31
74372;BME280;62885;51.374;6.170;2023-07-08T11:06:24;101209.56;;;31.66;28.96
74372;BME280;62885;51.374;6.170;2023-07-08T11:08:55;101206.53;;;31.79;28.83
74372;BME280;62885;51.374;6.170;2023-07-08T11:13:53;101205.75;;;31.96;29.46
74372;BME280;62885;51.374;6.170;2023-07-08T11:16:45;101202.84;;;32.14;28.44
74372;BME280;62885;51.374;6.170;2023-07-08T11:19:29;101197.25;;;32.26;28.83
74372;BME280;62885;51.374;6.170;2023-07-08T11:21:59;101195.78;;;32.23;28.39
74372;BME280;62885;51.374;6.170;2023-07-08T11:29:40;101199.25;;;31.90;28.53
74372;BME280;62885;51.374;6.170;2023-07-08T11:32:12;101195.44;;;31.79;28.48
74372;BME280;62885;51.374;6.170;2023-07-08T11:34:41;101197.03;;;32.04;29.32
74372;BME280;62885;51.374;6.170;2023-07-08T11:37:08;101191.09;;;32.24;29.12
74372;BME280;62885;51.374;6.170;2023-07-08T11:39:41;101197.97;;;32.49;28.56
74372;BME280;62885;51.374;6.170;2023-07-08T11:42:40;101198.31;;;32.53;27.96
74372;BME280;62885;51.374;6.170;2023-07-08T11:45:26;101199.84;;;32.60;27.37
74372;BME280;62885;51.374;6.170;2023-07-08T11:47:53;101199.06;;;32.65;28.30
74372;BME280;62885;51.374;6.170;2023-07-08T11:50:35;101202.91;;;32.92;26.83
74372;BME280;62885;51.374;6.170;2023-07-08T11:53:06;101188.78;;;32.94;26.09
74372;BME280;62885;51.374;6.170;2023-07-08T12:01:28;101189.22;;;32.57;27.10
74372;BME280;62885;51.374;6.170;2023-07-08T12:04:25;101188.94;;;32.71;26.10
74372;BME280;62885;51.374;6.170;2023-07-08T12:07:16;101184.66;;;32.80;26.34
74372;BME280;62885;51.374;6.170;2023-07-08T12:09:48;101181.81;;;33.08;25.98
74372;BME280;62885;51.374;6.170;2023-07-08T12:12:24;101176.75;;;33.05;25.71
74372;BME280;62885;51.374;6.170;2023-07-08T12:14:50;101173.22;;;32.93;26.76
74372;BME280;62885;51.374;6.170;2023-07-08T12:17:15;101163.97;;;32.71;26.52
74372;BME280;62885;51.374;6.170;2023-07-08T12:19:43;101176.16;;;33.03;25.67
74372;BME280;62885;51.374;6.170;2023-07-08T12:22:10;101164.31;;;33.08;25.35
74372;BME280;62885;51.374;6.170;2023-07-08T12:24:37;101164.13;;;33.31;26.27
74372;BME280;62885;51.374;6.170;2023-07-08T12:27:03;101171.81;;;33.24;26.17
74372;BME280;62885;51.374;6.170;2023-07-08T12:29:29;101166.31;;;33.29;25.45
74372;BME280;62885;51.374;6.170;2023-07-08T12:31:54;101161.44;;;32.86;26.63
74372;BME280;62885;51.374;6.170;2023-07-08T12:34:22;101155.72;;;32.92;26.32
74372;BME280;62885;51.374;6.170;2023-07-08T12:36:50;101159.94;;;33.12;26.68
74372;BME280;62885;51.374;6.170;2023-07-08T12:39:16;101161.03;;;33.49;26.32
74372;BME280;62885;51.374;6.170;2023-07-08T12:41:43;101161.38;;;33.31;25.92
74372;BME280;62885;51.374;6.170;2023-07-08T12:44:22;101169.50;;;33.76;24.59
74372;BME280;62885;51.374;6.170;2023-07-08T12:46:49;101164.00;;;33.81;24.18
74372;BME280;62885;51.374;6.170;2023-07-08T12:49:16;101166.28;;;33.46;23.88
74372;BME280;62885;51.374;6.170;2023-07-08T12:51:43;101152.03;;;33.20;24.26
74372;BME280;62885;51.374;6.170;2023-07-08T12:54:10;101156.84;;;33.25;24.75
74372;BME280;62885;51.374;6.170;2023-07-08T12:56:37;101155.06;;;33.19;24.06
74372;BME280;62885;51.374;6.170;2023-07-08T12:59:04;101148.16;;;33.21;24.13
74372;BME280;62885;51.374;6.170;2023-07-08T13:01:30;101150.31;;;33.36;24.20
74372;BME280;62885;51.374;6.170;2023-07-08T13:04:04;101155.13;;;33.84;23.92
74372;BME280;62885;51.374;6.170;2023-07-08T13:06:32;101146.88;;;33.89;24.23
74372;BME280;62885;51.374;6.170;2023-07-08T13:11:54;101145.69;;;34.07;24.00
74372;BME280;62885;51.374;6.170;2023-07-08T13:14:22;101148.28;;;33.92;23.98
74372;BME280;62885;51.374;6.170;2023-07-08T13:16:48;101155.22;;;33.89;24.37
74372;BME280;62885;51.374;6.170;2023-07-08T13:19:14;101156.50;;;33.81;24.46
74372;BME280;62885;51.374;6.170;2023-07-08T13:21:40;101154.44;;;33.94;24.40
74372;BME280;62885;51.374;6.170;2023-07-08T13:24:09;101154.28;;;34.05;24.34
74372;BME280;62885;51.374;6.170;2023-07-08T13:26:36;101157.19;;;34.42;23.95
74372;BME280;62885;51.374;6.170;2023-07-08T13:29:14;101152.88;;;34.56;23.44
74372;BME280;62885;51.374;6.170;2023-07-08T13:31:42;101154.81;;;34.24;23.75
74372;BME280;62885;51.374;6.170;2023-07-08T13:34:14;101147.19;;;34.19;24.30
74372;BME280;62885;51.374;6.170;2023-07-08T13:36:42;101161.03;;;34.14;24.10
74372;BME280;62885;51.374;6.170;2023-07-08T13:39:14;101149.97;;;33.93;23.97
74372;BME280;62885;51.374;6.170;2023-07-08T13:41:44;101157.97;;;34.11;24.36
74372;BME280;62885;51.374;6.170;2023-07-08T13:44:10;101161.63;;;33.90;24.32
74372;BME280;62885;51.374;6.170;2023-07-08T13:46:39;101162.97;;;33.87;24.38
74372;BME280;62885;51.374;6.170;2023-07-08T13:49:19;101152.81;;;33.76;24.65
74372;BME280;62885;51.374;6.170;2023-07-08T13:51:45;101147.25;;;33.98;24.64
74372;BME280;62885;51.374;6.170;2023-07-08T13:54:20;101148.63;;;33.95;24.00
74372;BME280;62885;51.374;6.170;2023-07-08T13:56:46;101144.00;;;34.06;23.89
74372;BME280;62885;51.374;6.170;2023-07-08T13:59:18;101142.63;;;34.30;23.99
74372;BME280;62885;51.374;6.170;2023-07-08T14:01:44;101144.78;;;34.55;23.37
74372;BME280;62885;51.374;6.170;2023-07-08T14:04:13;101137.94;;;34.68;23.48
74372;BME280;62885;51.374;6.170;2023-07-08T14:06:39;101156.50;;;34.89;23.24